Etusivu
METAR-TAF:

METAR-TAF

Lentoasemat :

Gamvik, Norja

Leveyspiiri: 71-02N, Pituuspiiri: 027-50E, korkeus merenpinnasta: 1 m

Tämänhetkinen sää

Tämä raportti tehtiin 14 minuuttia sitten, kello 04.50 UTC
Tuuli 22 kn luoteesta
Lämpötila 2°C
Kosteus 60%
Ilmanpaine 1008 hPa
Näkyvyys 10 km tai enemmän
Hajanaisia pilviä 1500 ft:n korkeudessa
Hajonneita pilviä 4500 ft:n korkeudessa

METAR: ENMH 230450Z 32022KT 9999 SCT015 BKN045 02/M05 Q1008

Aika: 07:04 (05:04 UTC)


TAF: puuttuu

Säähavainnot ja -ennusteet yli 4000 lentoasemalta (METAR- ja TAF-raportit).

Käytössä olevat sääasemat on merkitty karttaan keltaisilla ja punaisilla pisteillä.

Aseta hiiri pisteen päälle nähdäksesi sääaseman nimen.

Klikkaa sitten nähdäksesi säähavainnot ja -ennusteet.

Kartan vaihtaminen: klikkaa mustalla rastilla varustettuja vihreitä pisteitä, niin voit zoomata sisään; viivalla varustettua vihreää pistettä, niin voit zoomata ulos tai vihreitä nuolia, niin pääset viereisille kartoille.


METAR-TAF: